Time;durP1;ratioP1;P1;durP2;ratioP2;P2;SDS_P1;SDS_P2;PMS_P1;PMS_P2;Temp;Humidity;BMP_temperature;BMP_pressure;BME280_temperature;BME280_humidity;BME280_pressure;Samples;Min_cycle;Max_cycle;Signal;HPM_P1;HPM_P2
2023/10/25 00:01:16;;;;;;;;;;;;;;;16.24;56.42;99200.28;3170786;27;19919;-72
2023/10/25 00:02:47;;;;;;;;;;;;;;;16.23;56.49;99201.22;3166296;28;19919;-72
2023/10/25 00:04:18;;;;;;;;;;;;;;;16.21;56.63;99205.78;3169240;28;20384;-72
2023/10/25 00:05:49;;;;;;;;;;;;;;;16.18;56.75;99208.63;3165934;28;20462;-72
2023/10/25 00:07:21;;;;;;;;;;;;;;;16.14;56.81;99204.56;3171436;28;19930;-72
2023/10/25 00:08:51;;;;;;;;;;;;;;;16.11;57.02;99213.50;3156666;28;20567;-72
2023/10/25 00:10:23;;;;;;;;;;;;;;;16.08;57.15;99210.28;3152863;28;20025;-72
2023/10/25 00:11:55;;;;;;;;;;;;;;;16.04;57.05;99212.31;3155437;28;20367;-72
2023/10/25 00:13:26;;;;;;;;;;;;;;;16.03;56.95;99213.28;3171020;28;19923;-72
2023/10/25 00:14:57;;;;;;;;;;;;;;;16.02;57.03;99210.78;3171326;28;19923;-72
2023/10/25 00:16:28;;;;;;;;;;;;;;;16.01;56.85;99212.56;3171362;28;19920;-72
2023/10/25 00:17:59;;;;;;;;;;;;;;;16.00;57.04;99205.66;3171449;28;19990;-72
2023/10/25 00:19:30;;;;;;;;;;;;;;;15.99;56.92;99188.19;3168331;28;20014;-72
2023/10/25 00:21:01;;;;;;;;;;;;;;;15.98;57.00;99185.72;3169855;28;19923;-72
2023/10/25 00:22:33;;;;;;;;;;;;;;;15.98;57.08;99181.28;3171358;28;20422;-68
2023/10/25 00:24:03;;;;;;;;;;;;;;;15.97;56.94;99190.09;3170308;28;19919;-68
2023/10/25 00:25:35;;;;;;;;;;;;;;;15.96;56.94;99190.22;3169034;28;20405;-68
2023/10/25 00:27:07;;;;;;;;;;;;;;;15.94;57.06;99187.72;3161964;28;19924;-68
2023/10/25 00:28:38;;;;;;;;;;;;;;;15.93;57.01;99181.63;3171038;28;19998;-67
2023/10/25 00:30:10;;;;;;;;;;;;;;;15.93;57.03;99178.16;3171260;28;19927;-68
2023/10/25 00:31:42;;;;;;;;;;;;;;;15.66;56.94;99126.81;3163488;28;19924;-67
2023/10/25 00:33:13;;;;;;;;;;;;;;;15.94;56.74;99185.09;3163635;28;19920;-69
2023/10/25 00:34:44;;;;;;;;;;;;;;;15.95;56.72;99180.69;3166497;28;20317;-68
2023/10/25 00:36:15;;;;;;;;;;;;;;;15.94;56.67;99171.94;3170690;28;19924;-68
2023/10/25 00:37:47;;;;;;;;;;;;;;;15.91;56.68;99167.81;3169145;28;19924;-71
2023/10/25 00:39:17;;;;;;;;;;;;;;;15.89;56.87;99164.44;3154754;28;19920;-71
2023/10/25 00:40:49;;;;;;;;;;;;;;;15.89;57.10;99171.50;3161480;28;19930;-71
2023/10/25 00:42:21;;;;;;;;;;;;;;;15.87;57.08;99160.25;3162054;28;20309;-70
2023/10/25 00:43:52;;;;;;;;;;;;;;;15.86;56.97;99161.22;3145791;28;20266;-69
2023/10/25 00:45:23;;;;;;;;;;;;;;;15.82;57.16;99168.47;3169954;28;19972;-71
2023/10/25 00:46:54;;;;;;;;;;;;;;;15.80;57.29;99165.16;3170584;28;20018;-70
2023/10/25 00:48:25;;;;;;;;;;;;;;;15.78;56.98;99167.06;3169844;28;19923;-70
2023/10/25 00:49:57;;;;;;;;;;;;;;;15.78;57.30;99164.44;3167445;28;19971;-70
2023/10/25 00:51:28;;;;;;;;;;;;;;;15.78;57.07;99160.97;3170260;28;20370;-71
2023/10/25 00:53:00;;;;;;;;;;;;;;;15.79;56.89;99170.50;3163068;28;19920;-71
2023/10/25 00:54:31;;;;;;;;;;;;;;;15.81;56.90;99171.25;3164536;28;19956;-71
2023/10/25 00:56:02;;;;;;;;;;;;;;;15.83;56.87;99174.59;3161156;28;19932;-71
2023/10/25 00:57:35;;;;;;;;;;;;;;;15.83;56.78;99171.97;3161046;28;20289;-71
2023/10/25 00:59:06;;;;;;;;;;;;;;;15.83;56.76;99185.09;3170353;28;19924;-70
2023/10/25 01:00:38;;;;;;;;;;;;;;;15.82;56.87;99192.13;3170090;28;20646;-70
2023/10/25 01:02:09;;;;;;;;;;;;;;;15.79;56.82;99194.97;3166087;28;19920;-70
2023/10/25 01:03:41;;;;;;;;;;;;;;;15.79;56.73;99202.03;3165536;28;19924;-70
2023/10/25 01:05:12;;;;;;;;;;;;;;;15.79;56.67;99194.13;3170461;28;20135;-70
2023/10/25 01:06:43;;;;;;;;;;;;;;;15.78;56.81;99192.47;3170506;28;19924;-70
2023/10/25 01:08:16;;;;;;;;;;;;;;;15.78;56.64;99195.09;3149614;28;19921;-70
2023/10/25 01:09:48;;;;;;;;;;;;;;;15.77;56.72;99183.78;3160617;28;19924;-70
2023/10/25 01:11:19;;;;;;;;;;;;;;;15.76;56.49;99189.97;3153778;28;19920;-70
2023/10/25 01:12:52;;;;;;;;;;;;;;;15.75;56.51;99188.28;3167983;28;19919;-70
2023/10/25 01:14:25;;;;;;;;;;;;;;;15.72;56.56;99185.91;3170083;28;19934;-70
2023/10/25 01:15:57;;;;;;;;;;;;;;;15.68;56.76;99185.31;3170092;28;19985;-72
2023/10/25 01:17:27;;;;;;;;;;;;;;;15.65;56.90;99177.63;3170276;28;19919;-71
2023/10/25 01:18:59;;;;;;;;;;;;;;;15.64;56.57;99180.38;3165604;28;20294;-72
2023/10/25 01:20:31;;;;;;;;;;;;;;;15.61;56.60;99186.69;3170394;28;19920;-70
2023/10/25 01:22:03;;;;;;;;;;;;;;;15.60;56.91;99192.06;3170217;28;20030;-70
2023/10/25 01:23:35;;;;;;;;;;;;;;;15.54;57.23;99187.28;3170140;28;19920;-70
2023/10/25 01:25:07;;;;;;;;;;;;;;;15.49;57.58;99184.97;3170506;28;20555;-70
2023/10/25 01:26:37;;;;;;;;;;;;;;;15.43;57.26;99185.44;3154733;28;20313;-70
2023/10/25 01:28:09;;;;;;;;;;;;;;;15.43;57.39;99188.91;3160821;28;19930;-69
2023/10/25 01:29:41;;;;;;;;;;;;;;;15.43;57.46;99188.91;3170234;28;19923;-68
2023/10/25 01:31:11;;;;;;;;;;;;;;;15.41;57.40;99184.72;3168661;28;20408;-69
2023/10/25 01:32:43;;;;;;;;;;;;;;;15.40;57.39;99181.25;3166186;28;19924;-69
2023/10/25 01:34:18;;;;;;;;;;;;;;;15.38;57.75;99172.69;3170338;28;20006;-70
2023/10/25 01:35:50;;;;;;;;;;;;;;;15.38;57.52;99177.94;3157723;28;19924;-69
2023/10/25 01:37:22;;;;;;;;;;;;;;;15.39;57.55;99155.16;3170200;28;19923;-69
2023/10/25 01:38:54;;;;;;;;;;;;;;;15.39;57.39;99158.63;3152461;28;19931;-69
2023/10/25 01:40:25;;;;;;;;;;;;;;;15.40;57.24;99160.28;3162998;28;19924;-71
2023/10/25 01:41:56;;;;;;;;;;;;;;;15.41;57.18;99161.97;3165026;28;19919;-71
2023/10/25 01:43:28;;;;;;;;;;;;;;;15.43;57.00;99164.47;3170063;28;19926;-71
2023/10/25 01:45:01;;;;;;;;;;;;;;;15.44;56.94;99159.09;3170342;28;19998;-72
2023/10/25 01:46:32;;;;;;;;;;;;;;;15.43;57.12;99157.41;3169650;28;19930;-71
2023/10/25 01:48:03;;;;;;;;;;;;;;;15.42;57.09;99158.38;3165121;28;19931;-68
2023/10/25 01:49:34;;;;;;;;;;;;;;;15.43;56.98;99157.41;3169745;28;19920;-67
2023/10/25 01:51:06;;;;;;;;;;;;;;;15.45;56.90;99152.06;3169691;28;19924;-69
2023/10/25 01:52:37;;;;;;;;;;;;;;;15.45;56.92;99141.56;3169494;28;19959;-67
2023/10/25 01:54:09;;;;;;;;;;;;;;;15.46;56.78;99130.94;3169825;28;19964;-67
2023/10/25 01:55:41;;;;;;;;;;;;;;;15.46;56.74;99123.06;3168026;28;20039;-66
2023/10/25 01:57:12;;;;;;;;;;;;;;;15.48;56.69;99120.34;3158637;28;19927;-68
2023/10/25 01:58:43;;;;;;;;;;;;;;;15.46;56.75;99112.56;3170035;28;20396;-68
2023/10/25 02:00:15;;;;;;;;;;;;;;;15.48;57.00;99115.09;3170541;28;19969;-68
2023/10/25 02:01:47;;;;;;;;;;;;;;;15.46;57.17;99111.75;3146879;28;19923;-68
2023/10/25 02:03:17;;;;;;;;;;;;;;;15.43;57.12;99104.94;3168371;28;19919;-66
2023/10/25 02:04:49;;;;;;;;;;;;;;;15.43;57.17;99106.72;3168608;28;20269;-67
2023/10/25 02:06:19;;;;;;;;;;;;;;;15.43;57.14;99101.50;3169862;28;20507;-67
2023/10/25 02:07:51;;;;;;;;;;;;;;;15.43;57.05;99101.50;3166516;28;19923;-70
2023/10/25 02:09:23;;;;;;;;;;;;;;;15.45;57.12;99100.41;3158568;28;20435;-70
2023/10/25 02:10:54;;;;;;;;;;;;;;;15.45;56.86;99091.72;3156992;28;19928;-70
2023/10/25 02:12:25;;;;;;;;;;;;;;;15.45;57.07;99099.59;3161112;28;19931;-68
2023/10/25 02:13:57;;;;;;;;;;;;;;;15.45;57.10;99102.22;3169639;28;20380;-70
2023/10/25 02:15:28;;;;;;;;;;;;;;;15.44;57.21;99097.94;3169851;28;19987;-68
2023/10/25 02:17:00;;;;;;;;;;;;;;;15.44;57.18;99087.44;3165839;28;19923;-69
2023/10/25 02:18:31;;;;;;;;;;;;;;;15.43;56.96;99088.38;3169729;28;20400;-68
2023/10/25 02:20:02;;;;;;;;;;;;;;;15.41;57.28;99093.75;3169735;28;19976;-70
2023/10/25 02:21:35;;;;;;;;;;;;;;;15.38;57.16;99098.38;3169308;28;20739;-69
2023/10/25 02:23:07;;;;;;;;;;;;;;;15.34;57.51;99095.16;3169737;28;20032;-69
2023/10/25 02:24:39;;;;;;;;;;;;;;;15.32;57.69;99109.31;3169600;28;20381;-69
2023/10/25 02:26:10;;;;;;;;;;;;;;;15.27;57.88;99099.19;3158477;28;19967;-72
2023/10/25 02:27:41;;;;;;;;;;;;;;;15.25;57.96;99103.72;3144192;28;20359;-71
2023/10/25 02:29:12;;;;;;;;;;;;;;;15.23;57.85;99111.72;3168893;28;20002;-71
2023/10/25 02:30:44;;;;;;;;;;;;;;;15.23;58.03;99109.09;3167772;28;20212;-70
2023/10/25 02:32:14;;;;;;;;;;;;;;;15.25;57.89;99111.59;3156959;28;19923;-73
2023/10/25 02:33:46;;;;;;;;;;;;;;;15.27;57.89;99116.72;3166412;28;19992;-73
2023/10/25 02:35:18;;;;;;;;;;;;;;;15.28;57.90;99119.22;3166128;28;19919;-72
2023/10/25 02:36:48;;;;;;;;;;;;;;;15.30;57.77;99121.75;3169175;28;19919;-69
2023/10/25 02:38:20;;;;;;;;;;;;;;;15.32;57.58;99119.81;3162381;28;20045;-71
2023/10/25 02:39:52;;;;;;;;;;;;;;;15.33;57.61;99118.88;3159314;28;20004;-71
2023/10/25 02:41:23;;;;;;;;;;;;;;;15.34;57.63;99124.00;3157533;28;20067;-72
2023/10/25 02:42:55;;;;;;;;;;;;;;;15.35;57.51;99122.22;3169259;28;20716;-72
2023/10/25 02:44:26;;;;;;;;;;;;;;;15.36;57.51;99131.78;3168882;28;20358;-72
2023/10/25 02:46:01;;;;;;;;;;;;;;;15.36;57.38;99134.41;3165072;28;19931;-71
2023/10/25 02:47:32;;;;;;;;;;;;;;;15.36;57.35;99129.97;3169419;28;20396;-73
2023/10/25 02:49:03;;;;;;;;;;;;;;;15.36;57.65;99135.22;3169234;28;19924;-74
2023/10/25 02:50:37;;;;;;;;;;;;;;;15.36;57.67;99129.16;3169539;28;19926;-74
2023/10/25 02:52:08;;;;;;;;;;;;;;;15.36;57.61;99140.47;3169538;28;19949;-74
2023/10/25 02:53:39;;;;;;;;;;;;;;;15.34;57.93;99144.16;3169927;28;19920;-74
2023/10/25 02:55:12;;;;;;;;;;;;;;;15.31;58.20;99147.03;3169327;28;19924;-74
2023/10/25 02:56:44;;;;;;;;;;;;;;;15.25;58.35;99141.28;3152250;28;19947;-74
2023/10/25 02:58:15;;;;;;;;;;;;;;;15.22;58.61;99151.16;3167648;28;19920;-74
2023/10/25 02:59:47;;;;;;;;;;;;;;;15.19;58.69;99149.59;3168800;28;19927;-74
2023/10/25 03:01:21;;;;;;;;;;;;;;;15.19;58.52;99144.34;3165698;28;19933;-74
2023/10/25 03:02:53;;;;;;;;;;;;;;;15.19;58.35;99136.50;3164631;28;19979;-74
2023/10/25 03:04:23;;;;;;;;;;;;;;;15.21;58.62;99141.63;3168458;28;20063;-74
2023/10/25 03:05:55;;;;;;;;;;;;;;;15.21;58.37;99136.38;3169310;28;20390;-74
2023/10/25 03:07:26;;;;;;;;;;;;;;;15.22;58.52;99141.50;3169383;28;20411;-74
2023/10/25 03:08:57;;;;;;;;;;;;;;;15.21;58.51;99139.84;3154610;28;19931;-74
2023/10/25 03:10:29;;;;;;;;;;;;;;;15.22;58.49;99140.69;3153110;28;19996;-74
2023/10/25 03:12:01;;;;;;;;;;;;;;;15.23;58.12;99140.56;3153958;28;19977;-74
2023/10/25 03:13:31;;;;;;;;;;;;;;;15.24;58.30;99138.78;3169197;28;19927;-74
2023/10/25 03:15:03;;;;;;;;;;;;;;;15.24;58.23;99141.41;3165391;28;20329;-74
2023/10/25 03:16:33;;;;;;;;;;;;;;;15.20;58.45;99143.44;3169468;28;19931;-72
2023/10/25 03:18:05;;;;;;;;;;;;;;;15.14;58.92;99137.78;3169307;28;19920;-72
2023/10/25 03:19:36;;;;;;;;;;;;;;;15.10;59.26;99141.59;3169582;28;19930;-73
2023/10/25 03:21:07;;;;;;;;;;;;;;;15.05;59.32;99147.16;3169264;28;20400;-73
2023/10/25 03:22:38;;;;;;;;;;;;;;;15.03;59.27;99146.47;3157725;28;20454;-72
2023/10/25 03:24:09;;;;;;;;;;;;;;;15.04;59.03;99147.28;3167321;28;19980;-73
2023/10/25 03:25:41;;;;;;;;;;;;;;;15.02;59.10;99144.78;3166185;28;20316;-73
2023/10/25 03:27:13;;;;;;;;;;;;;;;15.04;59.07;99150.75;3161774;28;20006;-73
2023/10/25 03:28:43;;;;;;;;;;;;;;;15.04;58.89;99163.03;3169231;28;19920;-73
2023/10/25 03:30:15;;;;;;;;;;;;;;;15.02;59.29;99160.50;3163479;28;19926;-74
2023/10/25 03:31:46;;;;;;;;;;;;;;;15.00;58.98;99160.63;3162964;28;19934;-72
2023/10/25 03:33:17;;;;;;;;;;;;;;;14.99;59.29;99161.56;3169450;28;19927;-73
2023/10/25 03:34:51;;;;;;;;;;;;;;;15.00;59.07;99167.66;3169405;28;19919;-73
2023/10/25 03:36:22;;;;;;;;;;;;;;;14.99;58.85;99172.03;3169512;28;19919;-72
2023/10/25 03:37:54;;;;;;;;;;;;;;;15.00;58.94;99173.75;3167362;28;19929;-73
2023/10/25 03:39:24;;;;;;;;;;;;;;;15.00;58.83;99173.75;3155808;28;19928;-71
2023/10/25 03:41:04;;;;;;;;;;;;;;;15.00;58.81;99176.38;3162720;28;20003;-72
2023/10/25 03:42:35;;;;;;;;;;;;;;;14.98;59.27;99180.03;3171994;28;20002;-72
2023/10/25 03:44:07;;;;;;;;;;;;;;;14.95;59.30;99175.03;3167079;28;19920;-71
2023/10/25 03:45:38;;;;;;;;;;;;;;;14.43;59.42;99085.25;3171618;28;19919;-72
2023/10/25 03:47:09;;;;;;;;;;;;;;;14.95;59.20;99164.53;3171732;28;20002;-72
2023/10/25 03:48:41;;;;;;;;;;;;;;;14.85;59.01;99151.28;3171667;28;19920;-72
2023/10/25 03:50:11;;;;;;;;;;;;;;;14.96;58.95;99177.53;3171662;28;19980;-71
2023/10/25 03:51:43;;;;;;;;;;;;;;;14.98;59.16;99185.28;3171470;28;19919;-73
2023/10/25 03:53:13;;;;;;;;;;;;;;;14.98;59.07;99186.13;3171278;28;19930;-73
2023/10/25 03:54:45;;;;;;;;;;;;;;;14.98;59.05;99188.75;3171635;28;19942;-73
2023/10/25 03:56:18;;;;;;;;;;;;;;;15.00;58.77;99199.97;3158066;28;19924;-73
2023/10/25 03:57:49;;;;;;;;;;;;;;;15.02;59.10;99178.84;3160685;28;19919;-71
2023/10/25 03:59:20;;;;;;;;;;;;;;;15.02;58.75;99176.22;3166985;28;19920;-72
2023/10/25 04:00:58;;;;;;;;;;;;;;;15.03;59.00;99170.06;3170943;28;19926;-73
2023/10/25 04:02:29;;;;;;;;;;;;;;;15.04;58.72;99168.28;3166981;28;20021;-75
2023/10/25 04:04:00;;;;;;;;;;;;;;;15.05;58.88;99162.06;3165611;28;19926;-63
2023/10/25 04:05:31;;;;;;;;;;;;;;;15.05;58.83;99148.97;3163318;28;19933;-68
2023/10/25 04:07:03;;;;;;;;;;;;;;;15.04;59.10;99147.28;3170733;28;20320;-68
2023/10/25 04:08:34;;;;;;;;;;;;;;;15.04;58.87;99142.88;3161121;28;19919;-71
2023/10/25 04:10:06;;;;;;;;;;;;;;;15.04;58.86;99142.88;3158867;28;19973;-72
2023/10/25 04:11:38;;;;;;;;;;;;;;;15.06;59.05;99133.13;3152595;28;20326;-72
2023/10/25 04:13:09;;;;;;;;;;;;;;;15.07;58.63;99121.69;3167124;28;20018;-73
2023/10/25 04:14:43;;;;;;;;;;;;;;;15.09;58.81;99125.03;3162956;28;20620;-71
2023/10/25 04:16:14;;;;;;;;;;;;;;;15.11;58.75;99117.84;3160841;28;20061;-71
2023/10/25 04:17:45;;;;;;;;;;;;;;;15.15;58.69;99119.31;3164609;28;19924;-69
2023/10/25 04:19:17;;;;;;;;;;;;;;;15.18;58.79;99113.84;3164527;28;20300;-68
2023/10/25 04:20:47;;;;;;;;;;;;;;;15.21;58.43;99115.41;3170937;28;19919;-68
2023/10/25 04:22:19;;;;;;;;;;;;;;;15.21;58.54;99112.78;3171414;28;19931;-70
2023/10/25 04:23:49;;;;;;;;;;;;;;;15.22;58.71;99109.19;3170795;28;20026;-66
2023/10/25 04:25:21;;;;;;;;;;;;;;;15.21;58.53;99108.38;3170894;28;20305;-67
2023/10/25 04:26:53;;;;;;;;;;;;;;;15.23;58.58;99103.84;3153244;27;19920;-62
2023/10/25 04:28:25;;;;;;;;;;;;;;;15.27;58.56;99103.63;3161130;28;20014;-64
2023/10/25 04:29:55;;;;;;;;;;;;;;;15.29;58.45;99094.66;3171046;28;19946;-65
2023/10/25 04:31:27;;;;;;;;;;;;;;;15.33;58.54;99092.66;3165428;28;19938;-65
2023/10/25 04:32:57;;;;;;;;;;;;;;;15.33;58.57;99085.63;3169514;28;20317;-64
2023/10/25 04:34:29;;;;;;;;;;;;;;;15.31;58.97;99084.06;3170805;28;19930;-64
2023/10/25 04:35:59;;;;;;;;;;;;;;;15.02;58.79;99045.13;3170894;28;19924;-64
2023/10/25 04:37:31;;;;;;;;;;;;;;;15.25;58.97;99094.06;3170815;28;19927;-66
2023/10/25 04:39:01;;;;;;;;;;;;;;;15.26;58.99;99084.41;3158747;28;19919;-63
2023/10/25 04:40:33;;;;;;;;;;;;;;;15.27;58.66;99080.00;3154296;28;19926;-64
2023/10/25 04:42:05;;;;;;;;;;;;;;;15.28;58.85;99066.75;3158025;28;19920;-63
2023/10/25 04:43:37;;;;;;;;;;;;;;;15.28;58.75;99061.53;3165866;28;19930;-68
2023/10/25 04:45:08;;;;;;;;;;;;;;;15.28;58.57;99053.66;3171082;28;19926;-67
2023/10/25 04:46:39;;;;;;;;;;;;;;;15.28;58.72;99061.53;3170188;28;20018;-65
2023/10/25 04:48:10;;;;;;;;;;;;;;;15.28;58.64;99065.94;3167676;28;19923;-67
2023/10/25 04:49:42;;;;;;;;;;;;;;;15.29;58.60;99068.44;3151436;28;20045;-67
2023/10/25 04:51:13;;;;;;;;;;;;;;;15.27;58.86;99070.34;3161590;28;20297;-65
2023/10/25 04:52:44;;;;;;;;;;;;;;;15.24;58.92;99055.69;3165246;28;20409;-65
2023/10/25 04:54:16;;;;;;;;;;;;;;;15.25;59.07;99052.09;3157868;28;20401;-64
2023/10/25 04:55:47;;;;;;;;;;;;;;;15.25;59.17;99052.09;3155160;28;19973;-64
2023/10/25 04:57:20;;;;;;;;;;;;;;;15.26;59.25;99055.53;3154090;28;19990;-65
2023/10/25 04:58:51;;;;;;;;;;;;;;;15.27;59.19;99056.41;3165846;28;19927;-68
2023/10/25 05:00:22;;;;;;;;;;;;;;;15.27;59.17;99056.41;3169318;28;20162;-64
2023/10/25 05:01:54;;;;;;;;;;;;;;;15.26;59.14;99063.41;3152233;28;20302;-66
2023/10/25 05:03:26;;;;;;;;;;;;;;;15.23;59.16;99066.28;3156731;28;20057;-70
2023/10/25 05:04:57;;;;;;;;;;;;;;;15.17;59.55;99058.88;3159800;28;19923;-69
2023/10/25 05:06:29;;;;;;;;;;;;;;;15.13;59.67;99060.06;3162039;28;19923;-70
2023/10/25 05:08:00;;;;;;;;;;;;;;;15.12;59.40;99056.63;3171136;28;19924;-69
2023/10/25 05:09:33;;;;;;;;;;;;;;;15.12;59.47;99061.84;3160424;28;19928;-66
2023/10/25 05:11:04;;;;;;;;;;;;;;;15.13;59.67;99062.69;3155069;28;20420;-72
2023/10/25 05:12:41;;;;;;;;;;;;;;;15.09;60.12;99056.00;3154825;28;20717;-66
2023/10/25 05:14:12;;;;;;;;;;;;;;;15.01;60.40;99056.59;3165171;28;20485;-67
2023/10/25 05:15:44;;;;;;;;;;;;;;;14.94;60.57;99052.75;3165737;28;19927;-74
2023/10/25 05:17:15;;;;;;;;;;;;;;;14.92;60.71;99049.41;3163847;28;19977;-69
2023/10/25 05:18:47;;;;;;;;;;;;;;;14.90;60.60;99046.06;3166665;28;19988;-68
2023/10/25 05:20:18;;;;;;;;;;;;;;;14.86;60.63;99042.00;3162213;28;20393;-69
2023/10/25 05:21:52;;;;;;;;;;;;;;;14.84;60.78;99041.28;3159243;28;19920;-71
2023/10/25 05:23:26;;;;;;;;;;;;;;;14.79;60.79;99045.09;3160194;28;19963;-69
2023/10/25 05:24:58;;;;;;;;;;;;;;;14.73;61.00;99044.69;3146715;28;20374;-67
2023/10/25 05:26:29;;;;;;;;;;;;;;;14.70;60.98;99056.25;3151210;28;19920;-70
2023/10/25 05:28:03;;;;;;;;;;;;;;;14.70;61.03;99051.03;3166980;28;20544;-72
2023/10/25 05:29:33;;;;;;;;;;;;;;;14.69;61.07;99059.81;3145755;28;20015;-69
2023/10/25 05:31:05;;;;;;;;;;;;;;;14.70;61.13;99051.03;3166668;28;19923;-64
2023/10/25 05:32:37;;;;;;;;;;;;;;;14.73;60.95;99065.66;3158528;28;19924;-67
2023/10/25 05:34:09;;;;;;;;;;;;;;;14.75;60.81;99063.75;3168240;28;19926;-66
2023/10/25 05:35:41;;;;;;;;;;;;;;;14.77;60.89;99072.34;3164261;28;19931;-66
2023/10/25 05:37:12;;;;;;;;;;;;;;;14.80;60.87;99066.88;3161760;28;20312;-62
2023/10/25 05:38:44;;;;;;;;;;;;;;;14.84;60.67;99068.31;3170020;28;19923;-63
2023/10/25 05:40:15;;;;;;;;;;;;;;;14.86;60.56;99057.75;3163931;28;19945;-64
2023/10/25 05:41:47;;;;;;;;;;;;;;;14.88;60.37;99054.06;3156761;28;19931;-64
2023/10/25 05:43:22;;;;;;;;;;;;;;;14.89;60.23;99055.72;3158770;28;20352;-63
2023/10/25 05:44:55;;;;;;;;;;;;;;;14.91;60.35;99053.81;3169881;28;19923;-62
2023/10/25 05:46:26;;;;;;;;;;;;;;;14.90;60.46;99049.50;3170056;28;19924;-66
2023/10/25 05:47:58;;;;;;;;;;;;;;;14.88;60.50;99050.56;3169804;28;19957;-65
2023/10/25 05:49:28;;;;;;;;;;;;;;;14.83;60.78;99060.59;3162951;28;19923;-66
2023/10/25 05:51:03;;;;;;;;;;;;;;;14.80;60.62;99072.13;3169394;28;19997;-64
2023/10/25 05:52:34;;;;;;;;;;;;;;;14.76;60.87;99066.28;3169665;28;19931;-66
2023/10/25 05:54:06;;;;;;;;;;;;;;;14.75;61.23;99075.09;3168608;28;20068;-64
2023/10/25 05:55:37;;;;;;;;;;;;;;;14.74;61.28;99076.03;3163830;28;19923;-64
2023/10/25 05:57:10;;;;;;;;;;;;;;;14.74;61.32;99078.66;3152173;28;19960;-64
2023/10/25 05:58:43;;;;;;;;;;;;;;;14.75;61.33;99082.94;3157592;28;19924;-65
2023/10/25 06:00:15;;;;;;;;;;;;;;;14.74;61.52;99086.53;3145077;28;20365;-65
2023/10/25 06:01:48;;;;;;;;;;;;;;;14.73;61.51;99084.88;3165120;28;19923;-66
2023/10/25 06:03:22;;;;;;;;;;;;;;;14.75;61.55;99084.72;3160903;28;19927;-66
2023/10/25 06:04:54;;;;;;;;;;;;;;;14.76;61.56;99082.00;3153798;28;19942;-68
2023/10/25 06:06:27;;;;;;;;;;;;;;;14.80;61.67;99093.09;3154759;28;19924;-63
2023/10/25 06:07:58;;;;;;;;;;;;;;;14.84;61.58;99085.84;3157322;28;19927;-63
2023/10/25 06:09:30;;;;;;;;;;;;;;;14.86;61.65;99087.41;3151105;28;19973;-68
2023/10/25 06:11:02;;;;;;;;;;;;;;;14.86;61.41;99091.81;3157317;28;19924;-69
2023/10/25 06:12:32;;;;;;;;;;;;;;;14.87;61.74;99098.72;3155640;28;19920;-68
2023/10/25 06:14:06;;;;;;;;;;;;;;;14.87;61.47;99101.34;3162055;28;19920;-67
2023/10/25 06:15:37;;;;;;;;;;;;;;;14.87;61.61;99094.31;3167122;28;19966;-69
2023/10/25 06:17:08;;;;;;;;;;;;;;;14.85;61.75;99104.09;3159536;28;20374;-68
2023/10/25 06:18:39;;;;;;;;;;;;;;;14.86;61.38;99104.91;3165251;28;20265;-68
2023/10/25 06:20:13;;;;;;;;;;;;;;;14.86;61.81;99102.31;3166392;28;19930;-68
2023/10/25 06:21:43;;;;;;;;;;;;;;;14.85;61.85;99105.84;3169123;28;19981;-70
2023/10/25 06:23:15;;;;;;;;;;;;;;;14.87;61.56;99104.78;3169893;28;19923;-67
2023/10/25 06:24:46;;;;;;;;;;;;;;;14.89;61.48;99107.31;3169326;28;20392;-70
2023/10/25 06:26:18;;;;;;;;;;;;;;;14.89;61.25;99116.00;3167574;28;19924;-69
2023/10/25 06:27:48;;;;;;;;;;;;;;;14.90;61.27;99122.09;3165403;28;19924;-68
2023/10/25 06:29:23;;;;;;;;;;;;;;;14.89;61.43;99129.13;3169533;28;20022;-68
2023/10/25 06:30:54;;;;;;;;;;;;;;;14.88;61.15;99129.22;3161833;28;20001;-68
2023/10/25 06:32:25;;;;;;;;;;;;;;;14.86;61.15;99139.00;3156879;28;19982;-68
2023/10/25 06:33:56;;;;;;;;;;;;;;;14.84;61.34;99133.03;3165860;28;19923;-68
2023/10/25 06:35:27;;;;;;;;;;;;;;;14.81;61.51;99134.06;3169532;28;19923;-67
2023/10/25 06:36:58;;;;;;;;;;;;;;;14.80;61.39;99135.03;3169449;28;20664;-62
2023/10/25 06:38:30;;;;;;;;;;;;;;;14.80;61.37;99140.28;3157185;28;19920;-63
2023/10/25 06:40:01;;;;;;;;;;;;;;;14.80;61.43;99135.03;3167797;28;20740;-62
2023/10/25 06:41:33;;;;;;;;;;;;;;;14.81;61.33;99144.56;3159392;28;19920;-62
2023/10/25 06:43:04;;;;;;;;;;;;;;;14.81;61.45;99139.31;3153132;28;20426;-63
2023/10/25 06:44:38;;;;;;;;;;;;;;;14.84;61.29;99130.41;3156340;28;19924;-63
2023/10/25 06:46:09;;;;;;;;;;;;;;;14.84;61.23;99126.00;3161987;28;19998;-65
2023/10/25 06:47:41;;;;;;;;;;;;;;;14.87;61.38;99128.38;3168326;28;19920;-66
2023/10/25 06:49:12;;;;;;;;;;;;;;;14.88;61.30;99130.06;3169554;28;19926;-64
2023/10/25 06:50:46;;;;;;;;;;;;;;;14.91;61.30;99129.03;3169340;28;20046;-65
2023/10/25 06:52:16;;;;;;;;;;;;;;;14.92;61.29;99133.31;3169636;28;19926;-62
2023/10/25 06:53:48;;;;;;;;;;;;;;;14.93;61.37;99140.22;3169389;28;19924;-63
2023/10/25 06:55:21;;;;;;;;;;;;;;;14.94;61.26;99123.56;3169374;28;19920;-65
2023/10/25 06:56:51;;;;;;;;;;;;;;;14.93;61.72;99122.69;3155436;28;20022;-64
2023/10/25 06:58:24;;;;;;;;;;;;;;;14.88;62.39;99127.47;3161940;28;19919;-64
2023/10/25 06:59:56;;;;;;;;;;;;;;;14.82;62.66;99122.66;3169000;28;19931;-65
2023/10/25 07:01:29;;;;;;;;;;;;;;;14.78;62.99;99118.56;3169194;28;19927;-63
2023/10/25 07:03:02;;;;;;;;;;;;;;;14.72;63.40;99113.78;3166473;28;19956;-63
2023/10/25 07:04:34;;;;;;;;;;;;;;;14.66;63.50;99112.44;3159433;28;19927;-63
2023/10/25 07:06:05;;;;;;;;;;;;;;;14.64;63.52;99118.75;3166179;28;19920;-63
2023/10/25 07:07:37;;;;;;;;;;;;;;;14.67;63.42;99126.38;3168316;28;19923;-63
2023/10/25 07:09:08;;;;;;;;;;;;;;;14.66;63.66;99128.16;3157826;28;19923;-63
2023/10/25 07:10:40;;;;;;;;;;;;;;;14.71;63.29;99130.47;3160271;28;20250;-63
2023/10/25 07:12:11;;;;;;;;;;;;;;;14.73;63.25;99118.94;3155890;28;19931;-63
2023/10/25 07:13:42;;;;;;;;;;;;;;;14.78;63.24;99118.56;3157437;28;19919;-62
2023/10/25 07:15:14;;;;;;;;;;;;;;;14.83;62.92;99129.56;3164681;28;20007;-61
2023/10/25 07:16:46;;;;;;;;;;;;;;;14.87;62.84;99130.19;3162482;28;19934;-61
2023/10/25 07:18:17;;;;;;;;;;;;;;;14.89;62.76;99130.91;3171908;28;19927;-61
2023/10/25 07:19:48;;;;;;;;;;;;;;;14.93;62.48;99122.69;3171415;28;20440;-62
2023/10/25 07:21:20;;;;;;;;;;;;;;;14.95;62.41;99109.47;3171585;28;19920;-63
2023/10/25 07:22:51;;;;;;;;;;;;;;;14.99;62.24;99105.66;3171841;28;19923;-62
2023/10/25 07:24:23;;;;;;;;;;;;;;;15.03;62.42;99109.75;3171851;28;19926;-62
2023/10/25 07:25:53;;;;;;;;;;;;;;;15.05;62.25;99101.75;3167413;28;20057;-60
2023/10/25 07:27:25;;;;;;;;;;;;;;;15.07;62.20;99100.69;3170506;28;20402;-61
2023/10/25 07:28:57;;;;;;;;;;;;;;;15.10;61.89;99107.50;3161883;28;19924;-61
2023/10/25 07:30:29;;;;;;;;;;;;;;;15.13;62.19;99115.13;3166027;28;19919;-61
2023/10/25 07:32:00;;;;;;;;;;;;;;;15.15;61.91;99114.06;3168202;28;19924;-62
2023/10/25 07:33:32;;;;;;;;;;;;;;;15.19;61.84;99110.25;3159766;28;19966;-63
2023/10/25 07:35:03;;;;;;;;;;;;;;;15.22;61.77;99109.19;3166505;28;20342;-63
2023/10/25 07:36:35;;;;;;;;;;;;;;;15.25;61.81;99125.53;3158605;28;19919;-63
2023/10/25 07:38:06;;;;;;;;;;;;;;;15.31;61.68;99120.78;3158691;28;20397;-64
2023/10/25 07:39:37;;;;;;;;;;;;;;;15.35;61.59;99114.34;3164560;28;19923;-67
2023/10/25 07:41:09;;;;;;;;;;;;;;;15.39;61.38;99114.00;3167849;28;19920;-66
2023/10/25 07:42:39;;;;;;;;;;;;;;;15.43;61.46;99114.59;3161364;28;19928;-67
2023/10/25 07:44:11;;;;;;;;;;;;;;;15.47;61.32;99119.50;3158595;28;20317;-66
2023/10/25 07:45:43;;;;;;;;;;;;;;;15.52;61.18;99128.81;3159699;28;19920;-63
2023/10/25 07:47:17;;;;;;;;;;;;;;;15.56;61.30;99138.97;3163232;28;19924;-63
2023/10/25 07:48:50;;;;;;;;;;;;;;;15.59;61.18;99143.16;3158202;28;19924;-64
2023/10/25 07:50:22;;;;;;;;;;;;;;;15.63;61.07;99147.22;3166468;28;20432;-63
2023/10/25 07:51:54;;;;;;;;;;;;;;;15.67;60.93;99141.63;3163871;28;20464;-63
2023/10/25 07:53:26;;;;;;;;;;;;;;;15.67;61.00;99136.38;3171701;28;19919;-64
2023/10/25 07:54:56;;;;;;;;;;;;;;;15.69;61.04;99146.75;3168265;28;19920;-61
2023/10/25 07:56:28;;;;;;;;;;;;;;;15.71;60.71;99142.25;3163277;28;20404;-63
2023/10/25 07:57:59;;;;;;;;;;;;;;;15.74;61.05;99139.38;3170896;28;19923;-64